createdAt,value
2018-10-01T00:00:05.998Z,999.71
2018-10-01T00:01:05.990Z,999.68
2018-10-01T00:02:05.980Z,999.69
2018-10-01T00:03:05.972Z,999.70
2018-10-01T00:04:05.963Z,999.69
2018-10-01T00:05:05.955Z,999.71
2018-10-01T00:06:05.945Z,999.69
2018-10-01T00:07:05.937Z,999.70
2018-10-01T00:08:05.929Z,999.65
2018-10-01T00:09:05.921Z,999.64
2018-10-01T00:10:05.912Z,999.67
2018-10-01T00:11:05.920Z,999.65
2018-10-01T00:12:05.895Z,999.61
2018-10-01T00:13:05.887Z,999.61
2018-10-01T00:14:05.878Z,999.65
2018-10-01T00:15:05.870Z,999.66
2018-10-01T00:16:05.864Z,999.67
2018-10-01T00:17:05.856Z,999.68
2018-10-01T00:18:05.844Z,999.71
2018-10-01T00:19:05.836Z,999.71
2018-10-01T00:20:05.827Z,999.70
2018-10-01T00:21:05.819Z,999.74
2018-10-01T00:22:05.811Z,999.72
2018-10-01T00:23:05.804Z,999.72
2018-10-01T00:24:05.794Z,999.68
2018-10-01T00:25:05.787Z,999.69
2018-10-01T00:26:05.777Z,999.70
2018-10-01T00:27:05.768Z,999.67
2018-10-01T00:28:05.761Z,999.69
2018-10-01T00:29:06.002Z,999.66
2018-10-01T00:30:05.742Z,999.68
2018-10-01T00:31:05.737Z,999.66
2018-10-01T00:32:05.725Z,999.63
2018-10-01T00:33:05.716Z,999.62
2018-10-01T00:34:05.708Z,999.62
2018-10-01T00:35:05.701Z,999.59
2018-10-01T00:36:05.690Z,999.60
2018-10-01T00:37:05.694Z,999.59
2018-10-01T00:38:05.672Z,999.55
2018-10-01T00:39:05.664Z,999.59
2018-10-01T00:40:05.655Z,999.54
2018-10-01T00:41:05.647Z,999.55
2018-10-01T00:42:05.637Z,999.55
2018-10-01T00:43:05.628Z,999.54
2018-10-01T00:44:05.620Z,999.52
2018-10-01T00:45:05.612Z,999.54
2018-10-01T00:46:05.602Z,999.54
2018-10-01T00:47:05.593Z,999.52
2018-10-01T00:48:05.788Z,999.48
2018-10-01T00:49:05.577Z,999.48
2018-10-01T00:50:05.569Z,999.51
2018-10-01T00:51:05.559Z,999.51
2018-10-01T00:52:05.551Z,999.50
2018-10-01T00:53:05.543Z,999.47
2018-10-01T00:54:05.533Z,999.47
2018-10-01T00:55:05.525Z,999.50
2018-10-01T00:56:05.517Z,999.45
2018-10-01T00:57:05.509Z,999.45
2018-10-01T00:58:05.498Z,999.44
2018-10-01T00:59:05.495Z,999.42
2018-10-01T01:00:05.484Z,999.39
2018-10-01T01:01:05.474Z,999.43
2018-10-01T01:02:05.465Z,999.40
2018-10-01T01:03:05.458Z,999.42
2018-10-01T01:04:05.453Z,999.44
2018-10-01T01:05:05.440Z,999.45
2018-10-01T01:06:05.430Z,999.43
2018-10-01T01:07:05.427Z,999.46
2018-10-01T01:08:05.414Z,999.46
2018-10-01T01:09:05.405Z,999.43
2018-10-01T01:10:05.396Z,999.43
2018-10-01T01:11:05.388Z,999.43
2018-10-01T01:12:05.381Z,999.41
2018-10-01T01:13:05.371Z,999.44
2018-10-01T01:14:05.361Z,999.40
2018-10-01T01:15:05.355Z,999.41
2018-10-01T01:16:05.345Z,999.46
2018-10-01T01:17:05.340Z,999.40
2018-10-01T01:18:05.327Z,999.45
2018-10-01T01:19:05.319Z,999.45
2018-10-01T01:20:05.311Z,999.43
2018-10-01T01:21:05.302Z,999.44
2018-10-01T01:22:05.293Z,999.47
2018-10-01T01:23:05.291Z,999.48
2018-10-01T01:24:05.276Z,999.47
2018-10-01T01:25:05.268Z,999.47
2018-10-01T01:26:05.258Z,999.51
2018-10-01T01:27:05.249Z,999.48
2018-10-01T01:28:05.241Z,999.47
2018-10-01T01:29:05.232Z,999.50
2018-10-01T01:30:05.223Z,999.50
2018-10-01T01:31:05.214Z,999.50
2018-10-01T01:32:05.206Z,999.50
2018-10-01T01:33:05.198Z,999.54
2018-10-01T01:34:05.188Z,999.52
2018-10-01T01:35:05.180Z,999.56
2018-10-01T01:36:05.171Z,999.59
2018-10-01T01:37:05.163Z,999.63
2018-10-01T01:38:05.158Z,999.66
2018-10-01T01:39:05.145Z,999.70
2018-10-01T01:40:05.138Z,999.70
2018-10-01T01:41:05.176Z,999.67
2018-10-01T01:42:05.119Z,999.70
2018-10-01T01:43:05.114Z,999.76
2018-10-01T01:44:05.102Z,999.77
2018-10-01T01:45:05.094Z,999.77
2018-10-01T01:46:05.084Z,999.81
2018-10-01T01:47:05.074Z,999.80
2018-10-01T01:48:05.067Z,999.76
2018-10-01T01:49:05.058Z,999.77
2018-10-01T01:50:05.049Z,999.79
2018-10-01T01:51:05.039Z,999.75
2018-10-01T01:52:05.032Z,999.76
2018-10-01T01:53:05.074Z,999.76
2018-10-01T01:54:05.016Z,999.77
2018-10-01T01:55:05.005Z,999.79
2018-10-01T01:56:04.997Z,999.77
2018-10-01T01:57:04.988Z,999.78
2018-10-01T01:58:04.978Z,999.81
2018-10-01T01:59:04.970Z,999.81
2018-10-01T02:00:04.962Z,999.78
2018-10-01T02:01:04.953Z,999.79
2018-10-01T02:02:04.943Z,999.78
2018-10-01T02:03:04.941Z,999.79
2018-10-01T02:04:04.976Z,999.78
2018-10-01T02:05:04.918Z,999.76
2018-10-01T02:06:04.908Z,999.78
2018-10-01T02:07:04.908Z,999.78
2018-10-01T02:08:04.891Z,999.72
2018-10-01T02:09:04.882Z,999.78
2018-10-01T02:10:04.872Z,999.75
2018-10-01T02:11:04.864Z,999.79
2018-10-01T02:12:04.855Z,999.75
2018-10-01T02:13:04.847Z,999.75
2018-10-01T02:14:04.837Z,999.76
2018-10-01T02:15:04.828Z,999.76
2018-10-01T02:16:04.820Z,999.78
2018-10-01T02:17:04.811Z,999.76
2018-10-01T02:18:04.807Z,999.76
2018-10-01T02:19:04.793Z,999.76
2018-10-01T02:20:04.783Z,999.78
2018-10-01T02:21:04.775Z,999.74
2018-10-01T02:22:04.766Z,999.73
2018-10-01T02:23:04.755Z,999.75
2018-10-01T02:24:04.751Z,999.71
2018-10-01T02:25:04.740Z,999.74
2018-10-01T02:26:04.730Z,999.75
2018-10-01T02:27:04.721Z,999.72
2018-10-01T02:28:04.712Z,999.76
2018-10-01T02:29:04.705Z,999.73
2018-10-01T02:30:04.694Z,999.73
2018-10-01T02:31:04.686Z,999.74
2018-10-01T02:32:04.676Z,999.72
2018-10-01T02:33:04.668Z,999.72
2018-10-01T02:34:04.659Z,999.72
2018-10-01T02:35:04.650Z,999.71
2018-10-01T02:36:04.641Z,999.70
2018-10-01T02:37:04.633Z,999.72
2018-10-01T02:38:04.623Z,999.77
2018-10-01T02:39:04.615Z,999.77
2018-10-01T02:40:04.606Z,999.74
2018-10-01T02:41:04.601Z,999.76
2018-10-01T02:42:04.591Z,999.73
2018-10-01T02:43:04.579Z,999.71
2018-10-01T02:44:04.570Z,999.72
2018-10-01T02:45:04.567Z,999.75
2018-10-01T02:46:04.560Z,999.75
2018-10-01T02:47:04.543Z,999.75
2018-10-01T02:48:04.535Z,999.77
2018-10-01T02:49:04.527Z,999.74
2018-10-01T02:50:04.517Z,999.74
2018-10-01T02:51:04.508Z,999.74
2018-10-01T02:52:04.500Z,999.78
2018-10-01T02:53:04.496Z,999.74
2018-10-01T02:54:04.482Z,999.77
2018-10-01T02:55:04.472Z,999.77
2018-10-01T02:56:04.464Z,999.74
2018-10-01T02:57:04.455Z,999.72
2018-10-01T02:58:04.446Z,999.72
2018-10-01T02:59:04.436Z,999.71
2018-10-01T03:00:04.428Z,999.74
2018-10-01T03:01:04.419Z,999.71
2018-10-01T03:02:04.410Z,999.74
2018-10-01T03:03:04.401Z,999.80
2018-10-01T03:04:04.390Z,999.75
2018-10-01T03:05:04.382Z,999.74
2018-10-01T03:06:04.374Z,999.73
2018-10-01T03:07:04.364Z,999.76
2018-10-01T03:08:04.356Z,999.75
2018-10-01T03:09:04.347Z,999.74
2018-10-01T03:10:04.338Z,999.71
2018-10-01T03:11:04.333Z,999.74
2018-10-01T03:12:04.322Z,999.74
2018-10-01T03:13:04.312Z,999.76
2018-10-01T03:14:04.302Z,999.75
2018-10-01T03:15:04.382Z,999.79
2018-10-01T03:16:04.286Z,999.83
2018-10-01T03:17:04.277Z,999.84
2018-10-01T03:18:04.267Z,999.82
2018-10-01T03:19:04.294Z,999.78
2018-10-01T03:20:04.254Z,999.80
2018-10-01T03:21:04.260Z,999.82
2018-10-01T03:22:04.232Z,999.81
2018-10-01T03:23:04.222Z,999.78
2018-10-01T03:24:04.217Z,999.81
2018-10-01T03:25:04.208Z,999.78
2018-10-01T03:26:04.196Z,999.79
2018-10-01T03:27:04.191Z,999.81
2018-10-01T03:28:04.178Z,999.80
2018-10-01T03:29:04.171Z,999.84
2018-10-01T03:30:04.163Z,999.84
2018-10-01T03:31:04.153Z,999.80
2018-10-01T03:32:04.145Z,999.84
2018-10-01T03:33:04.133Z,999.79
2018-10-01T03:34:04.174Z,999.82
2018-10-01T03:35:04.117Z,999.78
2018-10-01T03:36:04.106Z,999.75
2018-10-01T03:37:04.097Z,999.76
2018-10-01T03:38:04.088Z,999.78
2018-10-01T03:39:04.078Z,999.76
2018-10-01T03:40:04.073Z,999.73
2018-10-01T03:41:04.071Z,999.76
2018-10-01T03:42:04.052Z,999.76
2018-10-01T03:43:04.043Z,999.74
2018-10-01T03:44:04.035Z,999.76
2018-10-01T03:45:04.028Z,999.77
2018-10-01T03:46:04.016Z,999.78
2018-10-01T03:47:04.008Z,999.79
2018-10-01T03:48:03.999Z,999.80
2018-10-01T03:49:03.989Z,999.74
2018-10-01T03:50:04.072Z,999.74
2018-10-01T03:51:03.970Z,999.78
2018-10-01T03:52:03.963Z,999.75
2018-10-01T03:53:03.958Z,999.78
2018-10-01T03:54:03.942Z,999.75
2018-10-01T03:55:03.940Z,999.75
2018-10-01T03:56:03.926Z,999.73
2018-10-01T03:57:04.118Z,999.70
2018-10-01T03:58:03.911Z,999.73
2018-10-01T03:59:03.897Z,999.76
2018-10-01T04:00:03.890Z,999.74
2018-10-01T04:01:03.879Z,999.71
2018-10-01T04:02:03.870Z,999.77
2018-10-01T04:03:03.880Z,999.76
2018-10-01T04:04:03.854Z,999.78
2018-10-01T04:05:03.844Z,999.76
2018-10-01T04:06:03.834Z,999.75
2018-10-01T04:07:03.825Z,999.81
2018-10-01T04:08:03.816Z,999.86
2018-10-01T04:09:03.808Z,999.81
2018-10-01T04:10:03.801Z,999.85
2018-10-01T04:11:03.790Z,999.85
2018-10-01T04:12:03.779Z,999.85
2018-10-01T04:13:03.771Z,999.86
2018-10-01T04:14:03.761Z,999.87
2018-10-01T04:15:03.752Z,999.85
2018-10-01T04:16:03.743Z,999.87
2018-10-01T04:17:03.734Z,999.89
2018-10-01T04:18:03.725Z,999.91
2018-10-01T04:19:03.716Z,999.93
2018-10-01T04:20:03.707Z,999.99
2018-10-01T04:21:03.709Z,1000.00
2018-10-01T04:22:03.688Z,999.99
2018-10-01T04:23:03.681Z,999.99
2018-10-01T04:24:03.717Z,999.95
2018-10-01T04:25:03.662Z,1000.00
2018-10-01T04:26:03.652Z,999.97
2018-10-01T04:27:03.658Z,1000.00
2018-10-01T04:28:03.636Z,1000.01
2018-10-01T04:29:03.626Z,1000.01
2018-10-01T04:30:03.616Z,1000.05
2018-10-01T04:31:03.608Z,1000.07
2018-10-01T04:32:03.599Z,1000.04
2018-10-01T04:33:03.840Z,1000.03
2018-10-01T04:34:03.582Z,1000.05
2018-10-01T04:35:03.573Z,1000.04
2018-10-01T04:36:03.565Z,1000.03
2018-10-01T04:37:03.553Z,1000.04
2018-10-01T04:38:03.794Z,1000.05
2018-10-01T04:39:03.535Z,1000.08
2018-10-01T04:40:03.528Z,1000.07
2018-10-01T04:41:03.517Z,1000.05
2018-10-01T04:42:03.508Z,1000.04
2018-10-01T04:43:03.501Z,1000.10
2018-10-01T04:52:03.416Z,1000.14
2018-10-01T04:53:03.412Z,1000.15
2018-10-01T04:54:03.398Z,1000.19
2018-10-01T04:55:03.390Z,1000.21
2018-10-01T04:56:03.380Z,1000.23
2018-10-01T04:57:03.423Z,1000.24
2018-10-01T04:58:03.378Z,1000.24
2018-10-01T04:59:03.359Z,1000.24
2018-10-01T05:00:03.345Z,1000.24
2018-10-01T05:01:03.333Z,1000.26
2018-10-01T05:02:03.325Z,1000.28
2018-10-01T05:03:03.315Z,1000.28
2018-10-01T05:04:03.306Z,1000.31
2018-10-01T05:05:03.296Z,1000.31
2018-10-01T05:06:03.336Z,1000.26
2018-10-01T05:07:03.277Z,1000.34
2018-10-01T05:08:03.268Z,1000.29
2018-10-01T05:09:03.259Z,1000.34
2018-10-01T05:10:03.250Z,1000.34
2018-10-01T05:11:03.241Z,1000.33
2018-10-01T05:12:03.232Z,1000.40
2018-10-01T05:13:03.222Z,1000.36
2018-10-01T05:14:03.213Z,1000.38
2018-10-01T05:15:03.208Z,1000.41
2018-10-01T05:16:03.195Z,1000.41
2018-10-01T05:17:03.186Z,1000.46
2018-10-01T05:18:03.176Z,1000.46
2018-10-01T05:19:03.167Z,1000.49
2018-10-01T05:20:03.160Z,1000.51
2018-10-01T05:21:03.149Z,1000.53
2018-10-01T05:22:03.140Z,1000.53
2018-10-01T05:23:03.131Z,1000.54
2018-10-01T05:24:03.123Z,1000.61
2018-10-01T05:25:03.113Z,1000.60
2018-10-01T05:26:03.109Z,1000.58
2018-10-01T05:27:03.134Z,1000.63
2018-10-01T05:28:03.093Z,1000.63
2018-10-01T05:29:03.076Z,1000.60
2018-10-01T05:30:03.065Z,1000.64
2018-10-01T05:31:03.056Z,1000.66
2018-10-01T05:32:03.047Z,1000.63
2018-10-01T05:33:03.038Z,1000.65
2018-10-01T05:34:03.028Z,1000.68
2018-10-01T05:35:03.019Z,1000.62
2018-10-01T05:36:03.010Z,1000.67
2018-10-01T05:37:03.001Z,1000.65
2018-10-01T05:38:02.995Z,1000.66
2018-10-01T05:39:02.982Z,1000.64
2018-10-01T05:40:02.974Z,1000.67
2018-10-01T05:41:02.963Z,1000.66
2018-10-01T05:42:02.952Z,1000.73
2018-10-01T05:43:02.952Z,1000.71
2018-10-01T05:44:02.934Z,1000.73
2018-10-01T05:45:02.925Z,1000.71
2018-10-01T05:46:02.920Z,1000.76
2018-10-01T05:47:02.914Z,1000.75
2018-10-01T05:48:02.903Z,1000.74
2018-10-01T05:49:02.946Z,1000.74
2018-10-01T05:50:02.879Z,1000.77
2018-10-01T05:51:02.868Z,1000.76
2018-10-01T05:52:02.861Z,1000.85
2018-10-01T05:53:02.850Z,1000.84
2018-10-01T05:54:02.843Z,1000.87
2018-10-01T05:55:02.835Z,1000.83
2018-10-01T05:56:02.825Z,1000.82
2018-10-01T05:57:02.812Z,1000.83
2018-10-01T05:58:02.942Z,1000.88
2018-10-01T05:59:02.792Z,1000.86
2018-10-01T06:00:02.789Z,1000.87
2018-10-01T06:01:02.775Z,1000.90
2018-10-01T06:02:02.764Z,1000.90
2018-10-01T06:03:02.755Z,1000.92
2018-10-01T06:04:02.753Z,1000.93
2018-10-01T06:05:02.736Z,1000.90
2018-10-01T06:06:02.726Z,1000.95
2018-10-01T06:07:02.721Z,1000.90
2018-10-01T06:08:02.708Z,1000.98
2018-10-01T06:09:02.700Z,1000.94
2018-10-01T06:10:02.689Z,1000.96
2018-10-01T06:11:02.679Z,1000.95
2018-10-01T06:12:02.670Z,1000.94
2018-10-01T06:13:02.660Z,1000.93
2018-10-01T06:14:02.655Z,1000.94
2018-10-01T06:15:02.646Z,1000.94
2018-10-01T06:16:02.631Z,1001.02
2018-10-01T06:17:02.625Z,1000.99
2018-10-01T06:18:02.615Z,1001.05
2018-10-01T06:19:02.604Z,1001.01
2018-10-01T06:20:02.597Z,1001.05
2018-10-01T06:21:02.836Z,1001.08
2018-10-01T06:22:02.576Z,1001.11
2018-10-01T06:23:02.571Z,1001.11
2018-10-01T06:24:02.561Z,1001.21
2018-10-01T06:25:02.610Z,1001.18
2018-10-01T06:26:02.542Z,1001.21
2018-10-01T06:27:02.530Z,1001.17
2018-10-01T06:28:02.520Z,1001.20
2018-10-01T06:29:02.516Z,1001.24
2018-10-01T06:30:02.507Z,1001.29
2018-10-01T06:31:02.492Z,1001.26
2018-10-01T06:32:02.486Z,1001.24
2018-10-01T06:33:02.474Z,1001.23
2018-10-01T06:34:02.476Z,1001.24
2018-10-01T06:35:02.456Z,1001.23
2018-10-01T06:36:02.449Z,1001.22
2018-10-01T06:37:02.439Z,1001.22
2018-10-01T06:38:02.482Z,1001.21
2018-10-01T06:39:02.419Z,1001.20
2018-10-01T06:40:02.613Z,1001.21
2018-10-01T06:41:02.606Z,1001.27
2018-10-01T06:42:02.445Z,1001.24
2018-10-01T06:43:02.383Z,1001.27
2018-10-01T06:44:02.373Z,1001.28
2018-10-01T06:45:02.370Z,1001.29
2018-10-01T06:46:02.359Z,1001.27
2018-10-01T06:47:02.349Z,1001.32
2018-10-01T06:48:02.339Z,1001.33
2018-10-01T06:49:02.330Z,1001.37
2018-10-01T06:50:02.320Z,1001.33
2018-10-01T06:51:02.322Z,1001.35
2018-10-01T06:52:02.306Z,1001.38
2018-10-01T06:53:02.295Z,1001.35
2018-10-01T06:54:02.284Z,1001.38
2018-10-01T06:55:02.281Z,1001.38
2018-10-01T06:56:02.469Z,1001.45
2018-10-01T06:57:02.259Z,1001.46
2018-10-01T06:58:02.258Z,1001.49
2018-10-01T06:59:02.493Z,1001.50
2018-10-01T07:00:02.233Z,1001.50
2018-10-01T07:01:02.257Z,1001.53
2018-10-01T07:02:02.215Z,1001.53
2018-10-01T07:03:02.209Z,1001.54
2018-10-01T07:05:20.797Z,1001.60
2018-10-01T07:06:20.783Z,1001.57
2018-10-01T07:07:20.768Z,1001.56
2018-10-01T07:08:20.776Z,1001.62
2018-10-01T07:09:20.751Z,1001.68
2018-10-01T07:10:20.745Z,1001.69
2018-10-01T07:11:20.791Z,1001.74
2018-10-01T07:12:20.726Z,1001.73
2018-10-01T07:13:20.720Z,1001.72
2018-10-01T07:14:20.709Z,1001.71
2018-10-01T07:15:20.704Z,1001.72
2018-10-01T07:16:21.191Z,1001.72
2018-10-01T07:17:20.846Z,1001.75
2018-10-01T07:18:20.676Z,1001.72
2018-10-01T07:19:20.666Z,1001.71
2018-10-01T07:20:20.658Z,1001.78
2018-10-01T07:21:20.852Z,1001.79
2018-10-01T07:22:20.650Z,1001.75
2018-10-01T07:23:20.811Z,1001.78
2018-10-01T07:24:20.628Z,1001.74
2018-10-01T07:25:20.618Z,1001.78
2018-10-01T07:26:20.611Z,1001.74
2018-10-01T07:27:20.601Z,1001.74
2018-10-01T07:28:20.600Z,1001.74
2018-10-01T07:29:20.584Z,1001.77
2018-10-01T07:30:20.583Z,1001.82
2018-10-01T07:31:20.566Z,1001.85
2018-10-01T07:32:20.561Z,1001.84
2018-10-01T07:33:20.551Z,1001.82
2018-10-01T07:34:20.801Z,1001.86
2018-10-01T07:35:20.532Z,1001.89
2018-10-01T07:36:20.525Z,1001.95
2018-10-01T07:37:20.522Z,1001.97
2018-10-01T07:38:20.513Z,1001.99
2018-10-01T07:39:20.500Z,1001.97
2018-10-01T07:40:20.491Z,1001.99
2018-10-01T07:41:20.486Z,1001.95
2018-10-01T07:42:20.475Z,1002.03
2018-10-01T07:43:20.466Z,1001.97
2018-10-01T07:44:20.458Z,1001.99
2018-10-01T07:46:20.555Z,1002.02
2018-10-01T07:47:20.434Z,1002.06
2018-10-01T07:48:20.427Z,1002.11
2018-10-01T07:49:20.423Z,1002.17
2018-10-01T07:50:20.424Z,1002.15
2018-10-01T07:51:20.412Z,1002.18
2018-10-01T07:52:20.445Z,1002.16
2018-10-01T07:53:20.490Z,1002.21
2018-10-01T07:54:20.405Z,1002.23
2018-10-01T07:55:20.593Z,1002.25
2018-10-01T07:56:20.585Z,1002.34
2018-10-01T07:57:20.396Z,1002.29
2018-10-01T07:58:20.375Z,1002.35
2018-10-01T07:59:20.371Z,1002.37
2018-10-01T08:00:20.383Z,1002.38
2018-10-01T08:01:20.368Z,1002.46
2018-10-01T08:02:20.371Z,1002.40
2018-10-01T08:03:20.358Z,1002.41
2018-10-01T08:04:20.355Z,1002.43
2018-10-01T08:05:20.353Z,1002.40
2018-10-01T08:06:20.411Z,1002.47
2018-10-01T08:07:20.347Z,1002.49
2018-10-01T08:08:20.408Z,1002.45
2018-10-01T08:09:20.372Z,1002.50
2018-10-01T08:10:20.341Z,1002.49
2018-10-01T08:11:20.338Z,1002.55
2018-10-01T08:12:20.336Z,1002.60
2018-10-01T08:13:20.341Z,1002.60
2018-10-01T08:14:20.570Z,1002.57
2018-10-01T08:15:20.331Z,1002.60
2018-10-01T08:16:20.539Z,1002.66
2018-10-01T08:17:20.330Z,1002.65
2018-10-01T08:18:20.327Z,1002.74
2018-10-01T08:19:20.326Z,1002.73
2018-10-01T08:20:20.371Z,1002.69
2018-10-01T08:21:20.331Z,1002.79
2018-10-01T08:22:20.324Z,1002.74
2018-10-01T08:23:20.321Z,1002.70
2018-10-01T08:24:20.323Z,1002.71
2018-10-01T08:25:20.322Z,1002.74
2018-10-01T08:26:20.334Z,1002.78
2018-10-01T08:27:20.314Z,1002.82
2018-10-01T08:28:20.312Z,1002.85
2018-10-01T08:29:20.331Z,1002.87
2018-10-01T08:30:20.310Z,1002.90
2018-10-01T08:31:20.308Z,1002.87
2018-10-01T08:32:20.319Z,1002.86
2018-10-01T08:33:20.306Z,1002.89
2018-10-01T08:34:20.306Z,1002.93
2018-10-01T08:35:20.335Z,1002.93
2018-10-01T08:36:20.303Z,1002.92
2018-10-01T08:37:20.308Z,1002.98
2018-10-01T08:38:20.410Z,1002.93
2018-10-01T08:39:20.302Z,1002.94
2018-10-01T08:40:20.508Z,1003.00
2018-10-01T08:41:20.334Z,1002.96
2018-10-01T08:42:20.307Z,1003.01
2018-10-01T08:43:20.305Z,1003.02
2018-10-01T08:44:20.343Z,1002.94
2018-10-01T08:45:20.306Z,1002.99
2018-10-01T08:46:20.303Z,1003.01
2018-10-01T08:47:20.363Z,1003.06
2018-10-01T08:48:20.303Z,1003.03
2018-10-01T08:49:20.305Z,1003.08
2018-10-01T08:50:20.360Z,1003.05
2018-10-01T08:51:20.306Z,1003.07
2018-10-01T08:52:20.306Z,1003.13
2018-10-01T08:53:20.318Z,1003.16
2018-10-01T08:54:20.312Z,1003.14
2018-10-01T08:55:20.309Z,1003.11
2018-10-01T08:56:20.360Z,1003.15
2018-10-01T08:57:20.310Z,1003.18
2018-10-01T08:58:20.315Z,1003.14
2018-10-01T08:59:20.368Z,1003.15
2018-10-01T09:01:20.308Z,1003.18
2018-10-01T09:02:20.344Z,1003.12
2018-10-01T09:03:20.510Z,1003.13
2018-10-01T09:04:20.309Z,1003.18
2018-10-01T09:05:20.362Z,1003.19
2018-10-01T09:06:20.314Z,1003.16
2018-10-01T09:07:20.511Z,1003.17
2018-10-01T09:08:20.312Z,1003.19
2018-10-01T09:09:20.312Z,1003.18
2018-10-01T09:10:20.307Z,1003.25
2018-10-01T09:11:20.308Z,1003.27
2018-10-01T09:13:20.503Z,1003.26
2018-10-01T09:14:20.303Z,1003.29
2018-10-01T09:15:20.300Z,1003.28
2018-10-01T09:16:20.303Z,1003.27
2018-10-01T09:17:20.332Z,1003.32
2018-10-01T09:18:20.293Z,1003.30
2018-10-01T09:19:20.291Z,1003.25
2018-10-01T09:20:20.307Z,1003.26
2018-10-01T09:21:20.371Z,1003.24
2018-10-01T09:22:20.281Z,1003.27
2018-10-01T09:23:20.305Z,1003.27
2018-10-01T09:24:20.275Z,1003.31
2018-10-01T09:25:20.268Z,1003.33
2018-10-01T09:26:20.299Z,1003.29
2018-10-01T09:27:20.260Z,1003.30
2018-10-01T09:28:20.256Z,1003.27
2018-10-01T09:29:20.303Z,1003.29
2018-10-01T09:30:20.256Z,1003.25
2018-10-01T09:31:20.243Z,1003.31
2018-10-01T09:32:20.249Z,1003.32
2018-10-01T09:33:20.232Z,1003.31
2018-10-01T09:35:20.273Z,1003.35
2018-10-01T09:36:20.420Z,1003.33
2018-10-01T09:38:20.262Z,1003.30
2018-10-01T09:39:20.206Z,1003.40
2018-10-01T09:40:20.421Z,1003.33
2018-10-01T09:41:20.199Z,1003.34
2018-10-01T09:42:20.196Z,1003.29
2018-10-01T09:43:20.191Z,1003.30
2018-10-01T09:44:20.192Z,1003.30
2018-10-01T09:45:20.186Z,1003.26
2018-10-01T09:46:20.209Z,1003.27
2018-10-01T09:47:20.185Z,1003.29
2018-10-01T09:48:20.178Z,1003.26
2018-10-01T09:49:20.177Z,1003.28
2018-10-01T09:50:20.188Z,1003.25
2018-10-01T09:51:20.169Z,1003.21
2018-10-01T09:52:20.170Z,1003.23
2018-10-01T09:53:20.163Z,1003.26
2018-10-01T09:54:20.159Z,1003.28
2018-10-01T09:55:20.155Z,1003.27
2018-10-01T09:56:20.185Z,1003.31
2018-10-01T09:57:20.146Z,1003.30
2018-10-01T09:58:20.184Z,1003.27
2018-10-01T09:59:20.137Z,1003.21
2018-10-01T10:00:20.132Z,1003.26
2018-10-01T10:01:20.126Z,1003.22
2018-10-01T10:02:20.147Z,1003.23
2018-10-01T10:03:20.117Z,1003.23
2018-10-01T10:04:20.186Z,1003.17
2018-10-01T10:05:20.102Z,1003.23
2018-10-01T10:06:20.099Z,1003.21
2018-10-01T10:07:20.089Z,1003.20
2018-10-01T10:08:20.128Z,1003.27
2018-10-01T10:09:20.083Z,1003.23
2018-10-01T10:10:20.101Z,1003.32
2018-10-01T10:11:20.088Z,1003.27
2018-10-01T10:12:20.067Z,1003.30
2018-10-01T10:13:20.065Z,1003.28
2018-10-01T10:14:20.075Z,1003.26
2018-10-01T10:15:20.058Z,1003.31
2018-10-01T10:16:20.201Z,1003.33
2018-10-01T10:17:20.082Z,1003.30
2018-10-01T10:18:20.056Z,1003.33
2018-10-01T10:19:20.055Z,1003.29
2018-10-01T10:20:20.057Z,1003.32
2018-10-01T10:21:20.056Z,1003.35
2018-10-01T10:22:20.118Z,1003.29
2018-10-01T10:23:20.062Z,1003.31
2018-10-01T10:24:20.064Z,1003.30
2018-10-01T10:25:20.059Z,1003.36
2018-10-01T10:26:20.110Z,1003.30
2018-10-01T10:27:20.059Z,1003.35
2018-10-01T10:28:20.119Z,1003.37
2018-10-01T10:29:20.061Z,1003.37
2018-10-01T10:30:20.056Z,1003.35
2018-10-01T10:31:20.059Z,1003.41
2018-10-01T10:32:20.096Z,1003.45
2018-10-01T10:33:20.050Z,1003.42
2018-10-01T10:34:20.079Z,1003.45
2018-10-01T10:35:20.065Z,1003.40
2018-10-01T10:36:20.046Z,1003.37
2018-10-01T10:37:20.045Z,1003.47
2018-10-01T10:38:20.256Z,1003.42
2018-10-01T10:39:20.055Z,1003.39
2018-10-01T10:40:20.043Z,1003.48
2018-10-01T10:41:20.045Z,1003.46
2018-10-01T10:42:20.041Z,1003.51
2018-10-01T10:43:20.039Z,1003.53
2018-10-01T10:44:20.075Z,1003.51
2018-10-01T10:45:20.036Z,1003.54
2018-10-01T10:46:20.040Z,1003.57
2018-10-01T10:47:20.030Z,1003.60
2018-10-01T10:48:20.028Z,1003.63
2018-10-01T10:49:20.025Z,1003.67
2018-10-01T10:50:20.029Z,1003.75
2018-10-01T10:51:20.015Z,1003.70
2018-10-01T10:52:20.012Z,1003.68
2018-10-01T10:53:20.009Z,1003.74
2018-10-01T10:54:20.002Z,1003.65
2018-10-01T10:55:19.997Z,1003.74
2018-10-01T10:56:20.020Z,1003.76
2018-10-01T10:57:20.693Z,1003.77
2018-10-01T10:58:19.984Z,1003.75
2018-10-01T10:59:19.981Z,1003.72
2018-10-01T11:00:20.173Z,1003.74
2018-10-01T11:01:19.972Z,1003.66
2018-10-01T11:02:20.017Z,1003.72
2018-10-01T11:03:19.959Z,1003.75
2018-10-01T11:04:19.953Z,1003.77
2018-10-01T11:05:19.949Z,1003.73
2018-10-01T11:06:19.948Z,1003.73
2018-10-01T11:07:19.985Z,1003.73
2018-10-01T11:08:19.947Z,1003.71
2018-10-01T11:09:19.938Z,1003.74
2018-10-01T11:10:19.936Z,1003.79
2018-10-01T11:11:19.932Z,1003.78
2018-10-01T11:12:19.937Z,1003.73
2018-10-01T11:13:19.936Z,1003.76
2018-10-01T11:14:20.081Z,1003.74
2018-10-01T11:15:20.123Z,1003.74
2018-10-01T11:16:19.923Z,1003.74
2018-10-01T11:17:19.928Z,1003.81
2018-10-01T11:18:19.944Z,1003.82
2018-10-01T11:19:20.359Z,1003.91
2018-10-01T11:20:20.077Z,1004.02
2018-10-01T11:21:19.977Z,1003.99
2018-10-01T11:22:19.935Z,1004.05
2018-10-01T11:23:19.918Z,1004.07
2018-10-01T11:24:19.898Z,1004.12
2018-10-01T11:25:19.976Z,1004.11
2018-10-01T11:26:19.889Z,1004.18
2018-10-01T11:27:19.983Z,1004.20
2018-10-01T11:28:19.877Z,1004.19
2018-10-01T11:29:19.873Z,1004.25
2018-10-01T11:30:19.865Z,1004.23
2018-10-01T11:31:19.854Z,1004.28
2018-10-01T11:32:19.849Z,1004.19
2018-10-01T11:33:19.892Z,1004.23
2018-10-01T11:34:19.908Z,1004.23
2018-10-01T11:35:19.973Z,1004.21
2018-10-01T11:36:19.822Z,1004.18
2018-10-01T11:37:19.814Z,1004.18
2018-10-01T11:38:19.802Z,1004.21
2018-10-01T11:39:19.933Z,1004.20
2018-10-01T11:40:19.784Z,1004.26
2018-10-01T11:41:19.788Z,1004.27
2018-10-01T11:42:19.770Z,1004.25
2018-10-01T11:43:19.763Z,1004.25
2018-10-01T11:44:19.958Z,1004.27
2018-10-01T11:45:19.847Z,1004.26
2018-10-01T11:46:19.772Z,1004.24
2018-10-01T11:47:19.733Z,1004.20
2018-10-01T11:48:19.722Z,1004.24
2018-10-01T11:49:19.724Z,1004.25
2018-10-01T11:50:19.704Z,1004.30
2018-10-01T11:51:19.703Z,1004.34
2018-10-01T11:52:19.689Z,1004.34
2018-10-01T11:53:19.884Z,1004.35
2018-10-01T11:54:19.755Z,1004.34
2018-10-01T11:55:19.674Z,1004.30
2018-10-01T11:56:19.661Z,1004.32
2018-10-01T11:57:19.793Z,1004.31
2018-10-01T11:58:19.653Z,1004.31
2018-10-01T11:59:19.646Z,1004.33
2018-10-01T12:00:19.638Z,1004.36
2018-10-01T12:01:19.629Z,1004.37
2018-10-01T12:02:19.826Z,1004.40
2018-10-01T12:03:19.967Z,1004.34
2018-10-01T12:04:19.620Z,1004.34
2018-10-01T12:05:19.610Z,1004.30
2018-10-01T12:06:19.600Z,1004.30
2018-10-01T12:07:19.595Z,1004.35
2018-10-01T12:08:19.589Z,1004.37
2018-10-01T12:09:19.841Z,1004.33
2018-10-01T12:10:19.644Z,1004.36
2018-10-01T12:11:19.571Z,1004.34
2018-10-01T12:12:19.767Z,1004.31
2018-10-01T12:13:19.559Z,1004.30
2018-10-01T12:14:19.555Z,1004.32
2018-10-01T12:15:19.604Z,1004.35
2018-10-01T12:16:19.543Z,1004.32
2018-10-01T12:17:19.540Z,1004.33
2018-10-01T12:18:19.528Z,1004.33
2018-10-01T12:19:19.521Z,1004.36
2018-10-01T12:20:19.515Z,1004.38
2018-10-01T12:21:19.632Z,1004.35
2018-10-01T12:22:19.505Z,1004.38
2018-10-01T12:23:19.494Z,1004.39
2018-10-01T12:24:19.491Z,1004.40
2018-10-01T12:25:19.483Z,1004.37
2018-10-01T12:26:19.479Z,1004.36
2018-10-01T12:27:19.676Z,1004.36